Time;durP1;ratioP1;P1;durP2;ratioP2;P2;SDS_P1;SDS_P2;PMS_P1;PMS_P2;Temp;Humidity;BMP_temperature;BMP_pressure;BME280_temperature;BME280_humidity;BME280_pressure;Samples;Min_cycle;Max_cycle;Signal;HPM_P1;HPM_P2
2023/03/15 00:00:42;;;;;;;4.87;1.30;;;;;;;;;;5013417;28;20056;-82
2023/03/15 00:03:08;;;;;;;7.53;2.00;;;;;;;;;;5011308;28;20493;-82
2023/03/15 00:05:34;;;;;;;5.30;2.10;;;;;;;;;;5000117;28;20032;-82
2023/03/15 00:08:00;;;;;;;11.53;1.87;;;;;;;;;;5012194;28;20121;-80
2023/03/15 00:10:29;;;;;;;4.40;1.33;;;;;;;;;;5009827;28;20036;-81
2023/03/15 00:12:54;;;;;;;8.00;1.73;;;;;;;;;;5006880;28;20030;-79
2023/03/15 00:15:20;;;;;;;8.23;1.40;;;;;;;;;;5016650;28;20021;-82
2023/03/15 00:17:46;;;;;;;6.97;1.43;;;;;;;;;;5018063;28;20052;-81
2023/03/15 00:20:13;;;;;;;9.83;1.67;;;;;;;;;;5017018;28;20030;-83
2023/03/15 00:22:39;;;;;;;4.20;1.70;;;;;;;;;;5017255;28;20411;-81
2023/03/15 00:25:05;;;;;;;4.80;1.77;;;;;;;;;;5017600;28;20021;-83
2023/03/15 00:27:31;;;;;;;5.50;1.63;;;;;;;;;;5007784;28;20034;-81
2023/03/15 00:29:56;;;;;;;7.80;1.80;;;;;;;;;;5003586;28;20026;-81
2023/03/15 00:32:22;;;;;;;7.83;2.03;;;;;;;;;;5008236;28;20382;-82
2023/03/15 00:34:47;;;;;;;5.10;1.80;;;;;;;;;;4997555;28;20062;-80
2023/03/15 00:37:18;;;;;;;10.53;1.60;;;;;;;;;;5007405;28;20084;-81
2023/03/15 00:39:45;;;;;;;12.47;1.63;;;;;;;;;;5008765;28;20029;-81
2023/03/15 00:42:14;;;;;;;8.07;2.27;;;;;;;;;;5016533;28;20100;-80
2023/03/15 00:44:42;;;;;;;6.97;1.57;;;;;;;;;;5003966;28;20066;-81
2023/03/15 00:47:11;;;;;;;8.17;1.83;;;;;;;;;;5006092;28;20113;-80
2023/03/15 00:49:37;;;;;;;10.07;2.17;;;;;;;;;;5013965;28;20037;-82
2023/03/15 00:52:04;;;;;;;11.67;2.10;;;;;;;;;;4997552;28;20026;-82
2023/03/15 00:54:32;;;;;;;6.00;1.80;;;;;;;;;;5001784;28;20030;-81
2023/03/15 00:57:01;;;;;;;10.37;1.83;;;;;;;;;;5004397;28;20028;-81
2023/03/15 00:59:34;;;;;;;6.00;1.93;;;;;;;;;;5000438;28;20094;-81
2023/03/15 01:02:04;;;;;;;8.73;1.73;;;;;;;;;;5003208;28;20034;-81
2023/03/15 01:04:30;;;;;;;11.30;1.70;;;;;;;;;;5016224;28;20033;-82
2023/03/15 01:06:57;;;;;;;4.53;1.57;;;;;;;;;;5008845;28;20018;-82
2023/03/15 01:09:23;;;;;;;5.13;1.47;;;;;;;;;;5016448;28;20105;-82
2023/03/15 01:11:48;;;;;;;4.83;1.63;;;;;;;;;;4998202;28;20454;-81
2023/03/15 01:14:14;;;;;;;8.17;1.70;;;;;;;;;;5003118;28;20030;-81
2023/03/15 01:16:39;;;;;;;4.03;1.90;;;;;;;;;;5015386;28;20022;-82
2023/03/15 01:19:05;;;;;;;8.77;1.90;;;;;;;;;;5005397;28;20541;-81
2023/03/15 01:21:35;;;;;;;9.87;1.73;;;;;;;;;;5014396;28;20060;-82
2023/03/15 01:24:00;;;;;;;7.60;1.67;;;;;;;;;;5000860;28;20022;-81
2023/03/15 01:26:26;;;;;;;9.63;2.23;;;;;;;;;;5016177;28;20370;-81
2023/03/15 01:28:51;;;;;;;6.73;1.77;;;;;;;;;;5014875;28;20075;-82
2023/03/15 01:31:23;;;;;;;5.50;1.60;;;;;;;;;;5000295;28;20317;-81
2023/03/15 01:33:48;;;;;;;3.58;1.02;;;;;;;;;;5013475;28;20061;-80
2023/03/15 01:36:14;;;;;;;24.87;2.03;;;;;;;;;;5011235;28;20034;-80
2023/03/15 01:38:40;;;;;;;7.17;1.67;;;;;;;;;;5013142;28;20017;-80
2023/03/15 01:41:05;;;;;;;7.50;1.63;;;;;;;;;;5004713;28;20454;-80
2023/03/15 01:43:31;;;;;;;9.87;2.07;;;;;;;;;;4997477;28;20045;-81
2023/03/15 01:46:13;;;;;;;5.20;1.67;;;;;;;;;;5016091;28;20025;-81
2023/03/15 01:48:43;;;;;;;13.63;1.50;;;;;;;;;;5015182;28;20026;-81
2023/03/15 01:51:20;;;;;;;9.73;1.70;;;;;;;;;;5012660;28;20034;-81
2023/03/15 01:53:52;;;;;;;8.50;1.73;;;;;;;;;;5000290;28;20026;-80
2023/03/15 01:56:17;;;;;;;9.43;2.10;;;;;;;;;;5016810;28;20189;-81
2023/03/15 01:58:45;;;;;;;7.33;1.40;;;;;;;;;;5011882;28;20041;-82
2023/03/15 02:01:13;;;;;;;5.60;2.67;;;;;;;;;;5012365;28;20117;-81
2023/03/15 02:03:45;;;;;;;4.43;1.73;;;;;;;;;;5012724;28;20018;-79
2023/03/15 02:06:16;;;;;;;5.90;1.23;;;;;;;;;;5010258;28;20475;-81
2023/03/15 02:08:56;;;;;;;7.85;2.03;;;;;;;;;;5006168;28;20498;-81
2023/03/15 02:11:24;;;;;;;7.20;1.17;;;;;;;;;;5016008;28;20020;-80
2023/03/15 02:13:51;;;;;;;6.97;1.20;;;;;;;;;;4996198;28;20038;-81
2023/03/15 02:16:18;;;;;;;5.30;1.53;;;;;;;;;;5011761;28;20038;-80
2023/03/15 02:18:43;;;;;;;3.97;1.67;;;;;;;;;;5001579;28;20465;-78
2023/03/15 02:21:32;;;;;;;6.80;1.20;;;;;;;;;;5015152;28;20021;-81
2023/03/15 02:24:26;;;;;;;6.17;1.47;;;;;;;;;;4996221;28;20030;-81
2023/03/15 02:26:56;;;;;;;6.60;2.20;;;;;;;;;;5016471;28;20068;-81
2023/03/15 02:29:24;;;;;;;3.90;1.60;;;;;;;;;;5015886;28;20061;-82
2023/03/15 02:31:52;;;;;;;4.90;1.57;;;;;;;;;;5015677;28;20112;-81
2023/03/15 02:34:17;;;;;;;9.90;1.80;;;;;;;;;;5015274;28;20052;-82
2023/03/15 02:36:43;;;;;;;9.60;1.67;;;;;;;;;;5006667;28;20454;-81
2023/03/15 02:39:17;;;;;;;10.20;1.50;;;;;;;;;;5007081;28;20651;-80
2023/03/15 02:41:47;;;;;;;8.00;1.37;;;;;;;;;;5011210;28;20391;-79
2023/03/15 02:44:29;;;;;;;2.90;1.10;;;;;;;;;;5015665;28;20037;-81
2023/03/15 02:47:03;;;;;;;7.60;1.23;;;;;;;;;;5003976;28;20034;-81
2023/03/15 02:49:34;;;;;;;6.80;1.03;;;;;;;;;;4994123;28;20037;-81
2023/03/15 02:51:59;;;;;;;7.57;1.37;;;;;;;;;;5015531;28;20517;-82
2023/03/15 02:54:25;;;;;;;10.53;1.60;;;;;;;;;;5015231;28;20084;-82
2023/03/15 02:56:50;;;;;;;5.63;1.50;;;;;;;;;;5014645;28;20053;-81
2023/03/15 02:59:16;;;;;;;5.07;1.70;;;;;;;;;;5015898;28;20005;-80
2023/03/15 03:01:44;;;;;;;7.77;1.40;;;;;;;;;;5013072;28;20030;-80
2023/03/15 03:04:10;;;;;;;4.87;1.03;;;;;;;;;;5012739;28;20030;-80
2023/03/15 03:06:36;;;;;;;6.53;1.40;;;;;;;;;;5005715;28;20029;-80
2023/03/15 03:09:02;;;;;;;3.60;1.40;;;;;;;;;;5012335;28;20033;-81
2023/03/15 03:11:27;;;;;;;4.50;1.47;;;;;;;;;;5001236;28;20034;-81
2023/03/15 03:13:53;;;;;;;3.23;1.33;;;;;;;;;;5006769;28;20045;-82
2023/03/15 03:16:21;;;;;;;5.07;1.20;;;;;;;;;;5019437;28;20030;-81
2023/03/15 03:18:47;;;;;;;6.37;1.23;;;;;;;;;;5016833;28;20028;-81
2023/03/15 03:21:13;;;;;;;9.53;1.83;;;;;;;;;;5010343;28;20026;-81
2023/03/15 03:23:39;;;;;;;5.87;1.53;;;;;;;;;;5008695;28;20022;-81
2023/03/15 03:26:15;;;;;;;5.90;1.60;;;;;;;;;;5006780;28;20021;-80
2023/03/15 03:28:43;;;;;;;9.23;2.50;;;;;;;;;;5014242;28;20038;-81
2023/03/15 03:31:17;;;;;;;9.73;2.50;;;;;;;;;;5004062;28;20130;-81
2023/03/15 03:33:43;;;;;;;13.43;2.83;;;;;;;;;;5003631;28;20323;-81
2023/03/15 03:36:08;;;;;;;4.63;1.60;;;;;;;;;;5004594;28;20030;-81
2023/03/15 03:38:35;;;;;;;7.47;1.93;;;;;;;;;;5016299;28;20007;-81
2023/03/15 03:41:01;;;;;;;8.63;1.77;;;;;;;;;;5007624;28;20073;-82
2023/03/15 03:43:26;;;;;;;5.43;1.73;;;;;;;;;;4999505;28;20030;-78
2023/03/15 03:45:52;;;;;;;6.30;1.53;;;;;;;;;;5013382;28;20389;-81
2023/03/15 03:48:17;;;;;;;7.40;1.70;;;;;;;;;;5015903;28;20042;-80
2023/03/15 03:50:42;;;;;;;7.53;1.40;;;;;;;;;;5014617;28;20041;-81
2023/03/15 03:53:08;;;;;;;6.40;1.90;;;;;;;;;;4997801;28;20541;-79
2023/03/15 03:55:33;;;;;;;4.80;1.67;;;;;;;;;;5008254;28;20029;-81
2023/03/15 03:57:59;;;;;;;8.83;1.80;;;;;;;;;;5017665;28;20044;-81
2023/03/15 04:00:25;;;;;;;9.53;1.60;;;;;;;;;;5018521;28;20363;-80
2023/03/15 04:02:52;;;;;;;6.83;1.60;;;;;;;;;;5017610;28;20028;-80
2023/03/15 04:05:18;;;;;;;4.70;1.70;;;;;;;;;;5014582;28;20145;-81
2023/03/15 04:07:44;;;;;;;9.63;2.10;;;;;;;;;;5014887;28;20853;-81
2023/03/15 04:10:13;;;;;;;7.70;1.87;;;;;;;;;;5013259;28;20116;-81
2023/03/15 04:12:42;;;;;;;9.43;2.37;;;;;;;;;;4997436;28;20038;-82
2023/03/15 04:15:10;;;;;;;12.87;2.73;;;;;;;;;;4997711;28;20026;-81
2023/03/15 04:17:36;;;;;;;9.20;1.87;;;;;;;;;;5005736;28;20038;-82
2023/03/15 04:20:04;;;;;;;8.93;1.57;;;;;;;;;;5010580;28;20090;-82
2023/03/15 04:22:30;;;;;;;6.03;1.63;;;;;;;;;;5015550;28;20050;-81
2023/03/15 04:24:55;;;;;;;9.70;2.13;;;;;;;;;;5016374;28;20057;-80
2023/03/15 04:27:21;;;;;;;14.73;2.37;;;;;;;;;;5016580;28;20026;-80
2023/03/15 04:29:46;;;;;;;7.43;1.60;;;;;;;;;;5017202;28;20033;-81
2023/03/15 04:32:12;;;;;;;4.03;1.53;;;;;;;;;;5017127;28;20022;-81
2023/03/15 04:34:37;;;;;;;11.77;3.17;;;;;;;;;;5014665;28;20482;-80
2023/03/15 04:37:04;;;;;;;12.30;2.10;;;;;;;;;;4997002;28;20030;-80
2023/03/15 04:39:30;;;;;;;10.27;2.20;;;;;;;;;;4998014;28;20086;-81
2023/03/15 04:41:55;;;;;;;7.73;2.00;;;;;;;;;;5009149;28;20070;-81
2023/03/15 04:44:25;;;;;;;5.70;2.10;;;;;;;;;;5014087;28;20042;-81
2023/03/15 04:46:51;;;;;;;18.43;3.03;;;;;;;;;;5017661;28;20030;-81
2023/03/15 04:49:16;;;;;;;9.37;1.83;;;;;;;;;;5012247;28;20085;-80
2023/03/15 04:51:42;;;;;;;8.43;2.30;;;;;;;;;;5022116;28;20117;-81
2023/03/15 04:54:07;;;;;;;5.20;1.80;;;;;;;;;;5015762;28;20022;-81
2023/03/15 04:56:35;;;;;;;9.33;2.03;;;;;;;;;;5018182;28;20091;-80
2023/03/15 04:59:01;;;;;;;17.70;2.50;;;;;;;;;;5018586;28;20022;-82
2023/03/15 05:01:29;;;;;;;10.70;2.27;;;;;;;;;;5016564;28;20036;-82
2023/03/15 05:03:56;;;;;;;9.77;1.87;;;;;;;;;;4988942;28;20033;-80
2023/03/15 05:06:21;;;;;;;5.37;1.87;;;;;;;;;;5010110;28;20113;-80
2023/03/15 05:08:47;;;;;;;9.20;2.37;;;;;;;;;;5012350;28;20072;-79
2023/03/15 05:11:13;;;;;;;7.37;1.70;;;;;;;;;;5002414;28;20049;-82
2023/03/15 05:13:38;;;;;;;7.27;2.20;;;;;;;;;;5016473;28;20478;-81
2023/03/15 05:16:04;;;;;;;9.93;2.07;;;;;;;;;;5004127;28;20018;-82
2023/03/15 05:18:30;;;;;;;8.10;2.20;;;;;;;;;;4999739;28;20037;-80
2023/03/15 05:20:55;;;;;;;7.07;2.23;;;;;;;;;;5016753;28;20017;-81
2023/03/15 05:23:22;;;;;;;5.23;2.23;;;;;;;;;;5004104;28;20041;-82
2023/03/15 05:25:55;;;;;;;6.67;1.87;;;;;;;;;;4997153;28;20035;-82
2023/03/15 05:28:23;;;;;;;10.87;3.13;;;;;;;;;;5015579;28;20445;-81
2023/03/15 05:30:50;;;;;;;13.00;1.97;;;;;;;;;;5010957;28;20040;-81
2023/03/15 05:33:16;;;;;;;8.57;2.80;;;;;;;;;;5016317;28;20034;-81
2023/03/15 05:35:45;;;;;;;10.03;2.80;;;;;;;;;;5004189;28;20057;-81
2023/03/15 05:38:15;;;;;;;7.60;2.20;;;;;;;;;;5014737;28;20037;-80
2023/03/15 05:40:44;;;;;;;12.20;2.63;;;;;;;;;;4995790;28;20030;-82
2023/03/15 05:43:09;;;;;;;11.53;3.73;;;;;;;;;;5008200;28;20044;-82
2023/03/15 05:45:36;;;;;;;8.60;2.30;;;;;;;;;;5009456;28;20461;-81
2023/03/15 05:48:02;;;;;;;13.73;2.97;;;;;;;;;;5017262;28;20037;-80
2023/03/15 05:50:28;;;;;;;7.77;2.27;;;;;;;;;;5011366;28;20097;-81
2023/03/15 05:52:55;;;;;;;17.80;5.43;;;;;;;;;;5009994;28;20025;-80
2023/03/15 05:55:23;;;;;;;10.93;3.40;;;;;;;;;;5018771;28;20038;-80
2023/03/15 05:57:49;;;;;;;10.57;2.47;;;;;;;;;;5011783;28;20049;-82
2023/03/15 06:00:15;;;;;;;11.33;2.47;;;;;;;;;;5014945;28;20030;-82
2023/03/15 06:02:42;;;;;;;13.67;2.20;;;;;;;;;;5015196;28;20070;-79
2023/03/15 06:05:09;;;;;;;10.47;2.60;;;;;;;;;;5013700;28;20032;-79
2023/03/15 06:07:35;;;;;;;11.23;2.20;;;;;;;;;;5003893;28;20025;-84
2023/03/15 06:10:01;;;;;;;11.33;2.80;;;;;;;;;;5040377;28;20254;-85
2023/03/15 06:12:27;;;;;;;12.17;2.47;;;;;;;;;;5014394;28;20022;-79
2023/03/15 06:14:53;;;;;;;13.83;4.83;;;;;;;;;;5014457;28;20036;-81
2023/03/15 06:17:18;;;;;;;10.10;3.10;;;;;;;;;;5017269;28;20125;-86
2023/03/15 06:19:44;;;;;;;6.30;2.00;;;;;;;;;;5017259;28;20061;-82
2023/03/15 06:22:11;;;;;;;9.97;1.90;;;;;;;;;;5020420;28;20091;-83
2023/03/15 06:24:36;;;;;;;8.70;2.03;;;;;;;;;;5012785;28;20026;-82
2023/03/15 06:27:02;;;;;;;12.60;2.70;;;;;;;;;;5011760;28;20040;-84
2023/03/15 06:29:28;;;;;;;13.47;2.70;;;;;;;;;;5008126;28;20026;-79
2023/03/15 06:31:53;;;;;;;11.13;3.33;;;;;;;;;;5012903;28;20033;-83
2023/03/15 06:34:20;;;;;;;7.80;1.93;;;;;;;;;;5013742;28;20025;-86
2023/03/15 06:36:46;;;;;;;11.73;2.37;;;;;;;;;;5011739;28;20034;-84
2023/03/15 06:39:14;;;;;;;11.83;2.43;;;;;;;;;;5024317;28;20236;-84
2023/03/15 06:41:43;;;;;;;14.00;2.40;;;;;;;;;;5012203;28;20080;-80
2023/03/15 06:44:09;;;;;;;7.90;1.97;;;;;;;;;;5009094;28;20049;-81
2023/03/15 06:46:35;;;;;;;8.73;3.47;;;;;;;;;;5005106;28;20051;-80
2023/03/15 06:49:00;;;;;;;12.03;2.03;;;;;;;;;;5010786;28;20397;-85
2023/03/15 06:51:26;;;;;;;4.90;1.30;;;;;;;;;;5003647;28;20026;-79
2023/03/15 06:53:51;;;;;;;4.07;1.37;;;;;;;;;;5006929;28;20018;-79
2023/03/15 06:56:17;;;;;;;9.70;2.13;;;;;;;;;;5011119;28;20076;-79
2023/03/15 06:58:43;;;;;;;11.67;2.53;;;;;;;;;;5000033;28;20068;-79
2023/03/15 07:01:12;;;;;;;7.23;1.63;;;;;;;;;;5004331;28;20164;-79
2023/03/15 07:03:37;;;;;;;13.43;2.40;;;;;;;;;;5011247;28;20025;-79
2023/03/15 07:06:03;;;;;;;8.00;2.93;;;;;;;;;;5006443;28;20039;-83
2023/03/15 07:08:29;;;;;;;2.60;1.47;;;;;;;;;;5006675;28;20041;-83
2023/03/15 07:10:56;;;;;;;15.13;3.33;;;;;;;;;;5007342;28;20071;-80
2023/03/15 07:13:22;;;;;;;4.67;1.47;;;;;;;;;;5008250;28;20889;-80
2023/03/15 07:15:55;;;;;;;5.33;1.60;;;;;;;;;;4996992;28;20036;-80
2023/03/15 07:18:21;;;;;;;6.73;1.73;;;;;;;;;;5002201;28;20034;-80
2023/03/15 07:20:56;;;;;;;9.40;1.60;;;;;;;;;;4998838;28;20029;-78
2023/03/15 07:23:21;;;;;;;10.10;1.93;;;;;;;;;;4987176;28;20038;-79
2023/03/15 07:25:47;;;;;;;2.73;1.67;;;;;;;;;;5001008;28;20153;-80
2023/03/15 07:28:13;;;;;;;4.83;1.40;;;;;;;;;;5004370;28;20629;-81
2023/03/15 07:30:39;;;;;;;7.20;1.47;;;;;;;;;;5004728;28;20936;-78
2023/03/15 07:33:05;;;;;;;2.97;1.27;;;;;;;;;;5007339;28;20617;-80
2023/03/15 07:35:30;;;;;;;6.67;1.30;;;;;;;;;;5007695;28;20116;-79
2023/03/15 07:37:57;;;;;;;4.23;1.60;;;;;;;;;;5010589;28;20033;-81
2023/03/15 07:40:25;;;;;;;10.57;1.70;;;;;;;;;;5009431;28;20057;-81
2023/03/15 07:42:51;;;;;;;6.67;1.83;;;;;;;;;;5026141;28;20046;-83
2023/03/15 07:45:16;;;;;;;5.07;1.20;;;;;;;;;;5006475;28;20040;-79
2023/03/15 07:47:42;;;;;;;5.53;1.90;;;;;;;;;;5007228;28;20033;-80
2023/03/15 07:50:11;;;;;;;5.80;1.20;;;;;;;;;;5009815;28;20085;-83
2023/03/15 07:52:36;;;;;;;8.73;0.97;;;;;;;;;;5008052;28;20033;-85
2023/03/15 07:55:03;;;;;;;6.60;1.47;;;;;;;;;;5013041;28;20037;-85
2023/03/15 07:57:29;;;;;;;7.00;1.37;;;;;;;;;;5005365;28;20505;-81
2023/03/15 07:59:57;;;;;;;3.63;1.17;;;;;;;;;;5013325;28;20074;-81
2023/03/15 08:02:24;;;;;;;6.60;1.77;;;;;;;;;;5015118;28;20041;-86
2023/03/15 08:04:50;;;;;;;5.63;1.03;;;;;;;;;;5015074;28;20042;-82
2023/03/15 08:07:16;;;;;;;6.53;1.27;;;;;;;;;;5013025;28;20101;-83
2023/03/15 08:09:42;;;;;;;7.43;1.47;;;;;;;;;;5015412;28;20037;-85
2023/03/15 08:12:08;;;;;;;13.70;1.50;;;;;;;;;;5007217;28;20086;-82
2023/03/15 08:14:33;;;;;;;8.33;1.50;;;;;;;;;;5006899;28;20589;-82
2023/03/15 08:17:00;;;;;;;8.10;1.40;;;;;;;;;;5012301;28;20029;-82
2023/03/15 08:19:26;;;;;;;5.30;1.60;;;;;;;;;;5008561;28;20033;-81
2023/03/15 08:21:52;;;;;;;5.77;1.20;;;;;;;;;;5007121;28;20029;-78
2023/03/15 08:24:20;;;;;;;10.03;1.17;;;;;;;;;;5006181;28;20026;-83
2023/03/15 08:26:46;;;;;;;3.20;0.67;;;;;;;;;;5019717;28;20192;-87
2023/03/15 08:29:12;;;;;;;9.43;1.37;;;;;;;;;;5003212;28;20129;-79
2023/03/15 08:31:38;;;;;;;2.97;0.90;;;;;;;;;;4998029;28;20073;-86
2023/03/15 08:34:04;;;;;;;6.73;0.97;;;;;;;;;;5013614;28;20056;-80
2023/03/15 08:36:31;;;;;;;9.57;1.70;;;;;;;;;;5007627;28;20030;-80
2023/03/15 08:38:57;;;;;;;2.27;0.97;;;;;;;;;;5008953;28;20147;-79
2023/03/15 08:41:24;;;;;;;5.73;1.67;;;;;;;;;;5011642;28;20050;-81
2023/03/15 08:43:50;;;;;;;5.43;1.80;;;;;;;;;;5014554;28;20030;-84
2023/03/15 08:46:20;;;;;;;2.27;0.73;;;;;;;;;;5025712;28;20120;-81
2023/03/15 08:48:46;;;;;;;6.57;1.10;;;;;;;;;;5012011;28;20026;-85
2023/03/15 08:51:16;;;;;;;2.03;0.77;;;;;;;;;;5010762;28;20034;-82
2023/03/15 08:53:42;;;;;;;5.37;1.30;;;;;;;;;;5015075;28;20348;-86
2023/03/15 08:56:09;;;;;;;5.87;1.53;;;;;;;;;;5000561;28;20109;-85
2023/03/15 08:58:35;;;;;;;5.07;1.10;;;;;;;;;;5011488;28;20127;-82
2023/03/15 09:01:03;;;;;;;1.27;0.90;;;;;;;;;;5014208;28;20031;-86
2023/03/15 09:03:31;;;;;;;3.50;0.90;;;;;;;;;;5009362;28;20040;-80
2023/03/15 09:05:58;;;;;;;4.40;1.03;;;;;;;;;;5025308;28;20986;-82
2023/03/15 09:08:25;;;;;;;7.37;1.07;;;;;;;;;;5007679;28;20030;-81
2023/03/15 09:10:55;;;;;;;3.13;0.73;;;;;;;;;;5013633;28;20095;-82
2023/03/15 09:13:22;;;;;;;4.70;1.33;;;;;;;;;;5011373;28;20048;-84
2023/03/15 09:15:52;;;;;;;4.47;0.90;;;;;;;;;;5015633;28;20040;-87
2023/03/15 09:18:19;;;;;;;4.60;1.33;;;;;;;;;;5014003;28;20037;-82
2023/03/15 09:20:46;;;;;;;5.53;1.07;;;;;;;;;;5005846;28;20575;-81
2023/03/15 09:23:12;;;;;;;5.40;0.80;;;;;;;;;;5010821;28;20042;-81
2023/03/15 09:25:38;;;;;;;2.17;0.73;;;;;;;;;;5011747;28;20053;-84
2023/03/15 09:28:07;;;;;;;4.83;1.07;;;;;;;;;;5016771;28;20030;-83
2023/03/15 09:30:34;;;;;;;6.43;0.60;;;;;;;;;;4995421;28;20025;-86
2023/03/15 09:33:02;;;;;;;4.50;1.17;;;;;;;;;;5014498;28;20319;-84
2023/03/15 09:35:28;;;;;;;2.60;0.93;;;;;;;;;;5017354;28;20034;-85
2023/03/15 09:37:55;;;;;;;4.60;1.00;;;;;;;;;;5015189;28;20018;-86
2023/03/15 09:40:25;;;;;;;3.73;0.90;;;;;;;;;;5008781;28;20026;-85
2023/03/15 09:43:10;;;;;;;7.80;1.00;;;;;;;;;;5010684;28;20050;-84
2023/03/15 09:46:08;;;;;;;3.67;1.10;;;;;;;;;;5015057;28;20041;-85
2023/03/15 09:49:11;;;;;;;11.87;3.07;;;;;;;;;;5017531;28;20030;-85
2023/03/15 09:51:57;;;;;;;6.72;1.33;;;;;;;;;;5015870;28;20173;-83
2023/03/15 09:54:31;;;;;;;1.80;0.93;;;;;;;;;;5020502;28;20067;-83
2023/03/15 09:57:03;;;;;;;2.40;1.10;;;;;;;;;;5033809;28;20137;-83
2023/03/15 09:59:35;;;;;;;4.87;1.30;;;;;;;;;;5009138;28;20025;-80
2023/03/15 10:02:14;;;;;;;3.50;1.00;;;;;;;;;;5009950;28;20025;-82
2023/03/15 10:04:43;;;;;;;3.60;1.23;;;;;;;;;;5015802;28;20030;-81
2023/03/15 10:07:15;;;;;;;6.10;0.83;;;;;;;;;;5000274;28;20229;-87
2023/03/15 10:09:44;;;;;;;4.53;1.13;;;;;;;;;;5009313;28;21490;-84
2023/03/15 10:12:39;;;;;;;4.50;1.03;;;;;;;;;;5026044;28;20045;-85
2023/03/15 10:15:27;;;;;;;8.00;1.23;;;;;;;;;;5004192;28;20038;-86
2023/03/15 10:18:20;;;;;;;2.70;0.80;;;;;;;;;;5017250;28;20006;-82
2023/03/15 10:21:13;;;;;;;8.70;2.40;;;;;;;;;;5022852;28;20513;-83
2023/03/15 10:23:49;;;;;;;6.77;1.23;;;;;;;;;;5028860;28;20643;-84
2023/03/15 10:26:24;;;;;;;4.10;0.83;;;;;;;;;;5019170;28;20382;-83
2023/03/15 10:28:52;;;;;;;1.80;1.17;;;;;;;;;;5015426;28;20037;-80
2023/03/15 10:31:24;;;;;;;5.97;0.97;;;;;;;;;;5015247;28;20124;-81
2023/03/15 10:33:50;;;;;;;10.85;3.13;;;;;;;;;;5018681;28;20127;-82
2023/03/15 10:36:19;;;;;;;8.93;2.17;;;;;;;;;;5011246;28;20082;-82
2023/03/15 10:38:49;;;;;;;4.20;1.23;;;;;;;;;;5011680;28;20077;-81
2023/03/15 10:41:40;;;;;;;5.50;1.50;;;;;;;;;;5012711;28;20043;-81
2023/03/15 10:44:25;;;;;;;1.43;0.67;;;;;;;;;;5015631;28;20502;-80
2023/03/15 10:47:26;;;;;;;1.93;0.80;;;;;;;;;;5009816;28;20029;-81
2023/03/15 10:49:58;;;;;;;2.60;1.00;;;;;;;;;;5020589;28;20033;-82
2023/03/15 10:52:37;;;;;;;5.10;0.82;;;;;;;;;;5010209;28;20144;-82
2023/03/15 10:55:31;;;;;;;4.53;1.10;;;;;;;;;;5012615;28;20029;-83
2023/03/15 10:58:13;;;;;;;6.05;0.98;;;;;;;;;;5035132;28;20216;-81
2023/03/15 11:00:49;;;;;;;4.00;0.88;;;;;;;;;;5016607;28;20133;-81
2023/03/15 11:03:23;;;;;;;3.17;1.25;;;;;;;;;;4998446;28;20037;-83
2023/03/15 11:05:55;;;;;;;4.82;1.08;;;;;;;;;;5018992;28;20060;-86
2023/03/15 11:08:27;;;;;;;3.28;1.40;;;;;;;;;;5009006;28;20033;-82
2023/03/15 11:10:58;;;;;;;1.20;0.93;;;;;;;;;;5009767;28;20113;-83
2023/03/15 11:13:32;;;;;;;7.47;1.35;;;;;;;;;;5003426;28;20040;-85
2023/03/15 11:16:18;;;;;;;6.90;1.58;;;;;;;;;;5009210;28;20041;-84
2023/03/15 11:18:56;;;;;;;4.65;1.52;;;;;;;;;;5020345;28;20045;-83
2023/03/15 11:21:32;;;;;;;8.30;2.13;;;;;;;;;;5008712;28;20390;-86
2023/03/15 11:24:03;;;;;;;8.48;1.80;;;;;;;;;;5016058;28;20481;-83
2023/03/15 11:26:34;;;;;;;6.05;2.78;;;;;;;;;;5001749;28;20808;-79
2023/03/15 11:29:06;;;;;;;3.05;1.20;;;;;;;;;;5012400;28;20025;-81
2023/03/15 11:31:37;;;;;;;4.05;1.25;;;;;;;;;;5014512;28;20089;-83
2023/03/15 11:34:18;;;;;;;;;;;;;;;;;;5022656;28;20054;-81
2023/03/15 11:37:19;;;;;;;1.95;1.10;;;;;;;;;;5021043;28;19940;-86
2023/03/15 11:39:50;;;;;;;3.28;0.98;;;;;;;;;;5022247;28;20041;-85
2023/03/15 11:42:27;;;;;;;;;;;;;;;;;;5021830;28;20050;-82
2023/03/15 11:45:00;;;;;;;5.90;1.13;;;;;;;;;;5030537;28;19953;-83
2023/03/15 11:47:50;;;;;;;3.47;1.20;;;;;;;;;;5018083;28;20619;-81
2023/03/15 11:50:18;;;;;;;4.75;1.42;;;;;;;;;;5010220;28;20046;-85
2023/03/15 11:52:51;;;;;;;6.28;1.25;;;;;;;;;;5029342;28;20036;-82
2023/03/15 11:55:31;;;;;;;8.10;1.03;;;;;;;;;;5012416;28;20026;-83
2023/03/15 11:58:41;;;;;;;3.80;0.70;;;;;;;;;;5024043;28;20036;-83
2023/03/15 12:01:09;;;;;;;4.28;1.73;;;;;;;;;;5024421;28;20034;-84
2023/03/15 12:03:43;;;;;;;1.75;0.80;;;;;;;;;;5023618;28;20026;-83
2023/03/15 12:06:17;;;;;;;4.37;0.90;;;;;;;;;;5029770;28;20045;-81
2023/03/15 12:08:50;;;;;;;2.70;0.85;;;;;;;;;;5022727;28;20078;-83
2023/03/15 12:11:22;;;;;;;6.03;1.20;;;;;;;;;;5021659;28;20018;-80
2023/03/15 12:14:00;;;;;;;4.63;1.20;;;;;;;;;;5017246;28;20026;-83
2023/03/15 12:16:44;;;;;;;6.93;1.40;;;;;;;;;;5021089;28;20044;-85
2023/03/15 12:19:15;;;;;;;1.67;1.10;;;;;;;;;;5023402;28;20030;-79
2023/03/15 12:21:50;;;;;;;4.27;1.57;;;;;;;;;;5026590;28;20018;-79
2023/03/15 12:24:25;;;;;;;5.37;1.13;;;;;;;;;;5027049;28;20034;-80
2023/03/15 12:27:02;;;;;;;5.20;1.05;;;;;;;;;;5017220;28;20139;-80
2023/03/15 12:29:33;;;;;;;3.70;1.00;;;;;;;;;;5033443;28;20037;-80
2023/03/15 12:32:12;;;;;;;3.22;1.13;;;;;;;;;;5015864;28;20084;-80
2023/03/15 12:34:47;;;;;;;1.83;0.93;;;;;;;;;;5046537;23;20038;-77
2023/03/15 12:37:22;;;;;;;6.77;2.00;;;;;;;;;;4999587;28;20038;-77
2023/03/15 12:39:50;;;;;;;6.87;2.93;;;;;;;;;;4989798;28;20026;-79
2023/03/15 12:42:32;;;;;;;3.22;1.30;;;;;;;;;;4985854;28;20030;-75
2023/03/15 12:45:18;;;;;;;4.53;1.37;;;;;;;;;;4992217;28;20026;-77
2023/03/15 12:48:17;;;;;;;5.90;1.10;;;;;;;;;;4988267;28;20089;-77
2023/03/15 12:50:52;;;;;;;6.10;1.43;;;;;;;;;;5001169;28;20023;-76
2023/03/15 12:53:37;;;;;;;5.43;1.83;;;;;;;;;;4986053;28;20364;-76
2023/03/15 12:56:27;;;;;;;5.00;1.40;;;;;;;;;;4997110;28;20038;-78
2023/03/15 12:59:11;;;;;;;1.13;0.87;;;;;;;;;;4992961;28;20430;-77
2023/03/15 13:01:41;;;;;;;6.37;1.47;;;;;;;;;;4983291;28;20127;-74
2023/03/15 13:04:14;;;;;;;2.30;1.40;;;;;;;;;;4995613;28;20038;-78
2023/03/15 13:07:06;;;;;;;3.97;1.40;;;;;;;;;;4992336;28;20057;-78
2023/03/15 13:09:32;;;;;;;4.18;1.70;;;;;;;;;;4995268;28;20034;-76
2023/03/15 13:12:47;;;;;;;4.63;1.60;;;;;;;;;;4991513;28;20506;-76
2023/03/15 13:15:25;;;;;;;7.67;2.47;;;;;;;;;;4986452;28;20133;-77
2023/03/15 13:18:17;;;;;;;3.40;1.40;;;;;;;;;;4991517;28;20057;-80
2023/03/15 13:21:09;;;;;;;3.72;2.03;;;;;;;;;;4977985;28;20061;-81
2023/03/15 13:23:36;;;;;;;5.50;2.55;;;;;;;;;;4982778;28;20031;-78
2023/03/15 13:26:32;;;;;;;7.13;1.33;;;;;;;;;;4969660;28;20039;-75
2023/03/15 13:29:13;;;;;;;6.73;2.00;;;;;;;;;;4989542;28;20058;-77
2023/03/15 13:31:40;;;;;;;6.00;1.95;;;;;;;;;;4977141;28;20066;-76
2023/03/15 13:34:23;;;;;;;5.10;2.07;;;;;;;;;;5002743;28;20015;-76
2023/03/15 13:37:01;;;;;;;6.87;2.50;;;;;;;;;;4975264;28;20050;-77
2023/03/15 13:39:36;;;;;;;6.27;1.57;;;;;;;;;;4976440;28;20031;-78
2023/03/15 13:42:04;;;;;;;7.77;1.67;;;;;;;;;;4971729;28;20035;-76
2023/03/15 13:44:32;;;;;;;3.87;1.67;;;;;;;;;;4976559;28;20044;-79
2023/03/15 13:46:58;;;;;;;6.23;2.47;;;;;;;;;;4978315;28;20034;-77
2023/03/15 13:49:31;;;;;;;5.90;1.67;;;;;;;;;;4974465;28;20097;-75
2023/03/15 13:51:57;;;;;;;3.80;1.83;;;;;;;;;;4977953;28;20043;-76
2023/03/15 13:54:30;;;;;;;7.60;1.63;;;;;;;;;;4967929;28;20045;-78
2023/03/15 13:57:11;;;;;;;4.53;1.67;;;;;;;;;;4965038;28;20050;-77
2023/03/15 13:59:44;;;;;;;6.47;1.63;;;;;;;;;;4961290;28;20355;-78
2023/03/15 14:02:25;;;;;;;4.97;1.57;;;;;;;;;;4967996;28;20666;-76
2023/03/15 14:04:58;;;;;;;3.10;1.60;;;;;;;;;;4965243;28;20035;-79
2023/03/15 14:07:32;;;;;;;4.67;1.73;;;;;;;;;;4965267;28;20133;-79
2023/03/15 14:10:22;;;;;;;5.10;1.80;;;;;;;;;;4965744;28;20031;-77
2023/03/15 14:12:49;;;;;;;9.87;2.33;;;;;;;;;;4965756;28;20106;-76
2023/03/15 14:15:23;;;;;;;4.47;1.83;;;;;;;;;;4961862;28;20032;-73
2023/03/15 14:18:06;;;;;;;2.60;2.00;;;;;;;;;;4976850;28;21329;-74
2023/03/15 14:20:44;;;;;;;4.20;1.90;;;;;;;;;;4963759;28;20027;-76
2023/03/15 14:23:21;;;;;;;4.93;2.40;;;;;;;;;;4958804;28;20033;-80
2023/03/15 14:26:01;;;;;;;4.83;2.00;;;;;;;;;;4963996;28;20131;-78
2023/03/15 14:28:30;;;;;;;4.90;1.90;;;;;;;;;;4962225;28;20475;-77
2023/03/15 14:30:57;;;;;;;3.47;1.83;;;;;;;;;;4963109;28;20774;-77
2023/03/15 14:33:39;;;;;;;4.60;2.17;;;;;;;;;;4966231;28;20125;-77
2023/03/15 14:36:19;;;;;;;2.20;1.43;;;;;;;;;;4970771;28;20047;-75
2023/03/15 14:38:53;;;;;;;3.83;1.17;;;;;;;;;;4968066;28;20183;-78
2023/03/15 14:41:32;;;;;;;1.73;1.13;;;;;;;;;;4965712;28;20042;-78
2023/03/15 14:44:02;;;;;;;1.37;1.13;;;;;;;;;;4964460;28;20027;-74
2023/03/15 14:46:30;;;;;;;3.47;1.60;;;;;;;;;;4966149;28;20035;-76
2023/03/15 14:48:56;;;;;;;3.80;1.30;;;;;;;;;;4980410;28;20035;-75
2023/03/15 14:51:27;;;;;;;3.83;1.40;;;;;;;;;;4945098;28;20038;-75
2023/03/15 14:53:55;;;;;;;4.63;1.67;;;;;;;;;;4963442;28;20030;-75
2023/03/15 14:56:21;;;;;;;2.83;1.20;;;;;;;;;;4970368;28;20089;-76
2023/03/15 14:58:48;;;;;;;3.97;1.43;;;;;;;;;;4969058;28;20058;-75
2023/03/15 15:01:24;;;;;;;4.10;1.07;;;;;;;;;;4967118;28;20395;-76